Time;durP1;ratioP1;P1;durP2;ratioP2;P2;SDS_P1;SDS_P2;PMS_P1;PMS_P2;Temp;Humidity;BMP_temperature;BMP_pressure;BME280_temperature;BME280_humidity;BME280_pressure;Samples;Min_cycle;Max_cycle;Signal;HPM_P1;HPM_P2
2022/04/30 00:00:43;;;;;;;1999.90;999.90;;;9.90;99.90;;;;;;5074074;28;20485;-66
2022/04/30 00:03:10;;;;;;;1999.90;999.90;;;9.90;99.90;;;;;;5081544;28;20448;-66
2022/04/30 00:05:36;;;;;;;1999.90;999.90;;;9.90;99.90;;;;;;5082578;28;20469;-67
2022/04/30 00:08:04;;;;;;;1999.90;999.90;;;9.90;99.90;;;;;;5074278;28;20920;-66
2022/04/30 00:10:37;;;;;;;1999.90;999.90;;;9.90;99.90;;;;;;5073755;28;20566;-67
2022/04/30 00:13:06;;;;;;;1999.90;999.90;;;9.90;99.90;;;;;;5099768;22;20504;-68
2022/04/30 00:15:34;;;;;;;1999.90;999.90;;;10.00;99.90;;;;;;5092945;28;20538;-68
2022/04/30 00:18:01;;;;;;;1999.90;999.90;;;10.00;99.90;;;;;;5093007;28;21326;-67
2022/04/30 00:20:28;;;;;;;1999.90;999.90;;;9.90;99.90;;;;;;5092585;28;20514;-68
2022/04/30 00:22:54;;;;;;;1999.90;999.90;;;9.90;99.90;;;;;;5106475;28;20475;-68
2022/04/30 00:25:23;;;;;;;1999.90;999.90;;;9.90;99.90;;;;;;5112972;28;20490;-68
2022/04/30 00:27:50;;;;;;;1999.90;999.90;;;9.80;99.90;;;;;;5113570;28;20440;-67
2022/04/30 00:30:18;;;;;;;1999.90;999.90;;;9.80;99.90;;;;;;5112189;28;20463;-68
2022/04/30 00:32:45;;;;;;;1999.90;999.90;;;9.80;99.90;;;;;;5113140;28;20467;-67
2022/04/30 00:35:12;;;;;;;1999.90;999.90;;;9.80;99.90;;;;;;5112694;28;20459;-68
2022/04/30 00:37:38;;;;;;;1999.90;999.90;;;9.70;99.90;;;;;;5105336;28;20536;-68
2022/04/30 00:40:07;;;;;;;1999.90;999.90;;;9.80;99.90;;;;;;5112274;28;20459;-67
2022/04/30 00:42:33;;;;;;;1999.90;999.90;;;9.70;99.90;;;;;;5112784;28;20470;-67
2022/04/30 00:45:00;;;;;;;1999.90;999.90;;;9.80;99.90;;;;;;5112639;28;20468;-69
2022/04/30 00:47:28;;;;;;;1999.90;999.90;;;9.80;99.90;;;;;;5113199;28;20852;-69
2022/04/30 00:49:55;;;;;;;1999.90;999.90;;;9.70;99.90;;;;;;5112174;28;20956;-68
2022/04/30 00:52:25;;;;;;;1999.90;999.90;;;9.60;99.90;;;;;;5112840;28;20460;-67
2022/04/30 00:54:57;;;;;;;1999.90;999.90;;;9.60;99.90;;;;;;5112409;28;20472;-67
2022/04/30 00:57:26;;;;;;;1999.90;999.90;;;9.50;99.90;;;;;;5113073;28;20516;-67
2022/04/30 00:59:59;;;;;;;1999.90;999.90;;;9.50;99.90;;;;;;5111971;28;20470;-68
2022/04/30 01:02:29;;;;;;;1999.90;999.90;;;9.50;99.90;;;;;;5111927;28;20513;-66
2022/04/30 01:04:56;;;;;;;1999.90;999.90;;;9.60;99.90;;;;;;5108797;28;20462;-68
2022/04/30 01:07:23;;;;;;;1999.90;999.90;;;9.60;99.90;;;;;;5112919;28;20432;-67
2022/04/30 01:09:53;;;;;;;1999.90;999.90;;;9.50;99.90;;;;;;5111838;28;20456;-69
2022/04/30 01:12:20;;;;;;;1999.90;999.90;;;9.50;99.90;;;;;;5110562;28;20570;-67
2022/04/30 01:14:48;;;;;;;1999.90;999.90;;;9.40;99.90;;;;;;5112981;28;20436;-67
2022/04/30 01:17:14;;;;;;;1999.90;999.90;;;9.40;99.90;;;;;;5112124;28;20475;-68
2022/04/30 01:19:43;;;;;;;1999.90;999.90;;;9.20;99.90;;;;;;5113920;28;20501;-67
2022/04/30 01:22:14;;;;;;;1999.90;999.90;;;9.10;99.90;;;;;;5112121;28;20487;-70
2022/04/30 01:24:44;;;;;;;1999.90;999.90;;;9.00;99.90;;;;;;5112175;28;20444;-70
2022/04/30 01:27:11;;;;;;;1999.90;999.90;;;8.80;99.90;;;;;;5111629;28;20462;-69
2022/04/30 01:29:38;;;;;;;1999.90;999.90;;;8.80;99.90;;;;;;5111044;28;20509;-68
2022/04/30 01:37:37;;;;;;;1999.90;999.90;;;8.90;99.90;;;;;;5111582;28;20531;-69
2022/04/30 01:40:06;;;;;;;1999.90;999.90;;;8.90;99.90;;;;;;5112231;28;20447;-68
2022/04/30 01:42:36;;;;;;;1999.90;999.90;;;8.90;99.90;;;;;;5111180;28;20486;-69
2022/04/30 01:45:05;;;;;;;1999.90;999.90;;;9.00;99.90;;;;;;5111618;28;20470;-68
2022/04/30 01:47:33;;;;;;;1999.90;999.90;;;9.00;99.90;;;;;;5112217;28;20436;-68
2022/04/30 01:50:00;;;;;;;1999.90;999.90;;;9.10;99.90;;;;;;5111716;28;20467;-68
2022/04/30 01:52:27;;;;;;;1999.90;999.90;;;9.20;99.90;;;;;;5111408;28;20472;-68
2022/04/30 01:54:53;;;;;;;1999.90;999.90;;;9.10;99.90;;;;;;5111997;28;20468;-68
2022/04/30 01:57:25;;;;;;;1999.90;999.90;;;9.00;99.90;;;;;;5112132;28;20608;-68
2022/04/30 01:59:52;;;;;;;1999.90;999.90;;;8.90;99.90;;;;;;5111605;28;20460;-68
2022/04/30 02:02:22;;;;;;;1999.90;999.90;;;8.80;99.90;;;;;;5111786;28;20463;-69
2022/04/30 02:04:49;;;;;;;1999.90;999.90;;;8.80;99.90;;;;;;5111527;28;20463;-68
2022/04/30 02:07:17;;;;;;;1999.90;999.90;;;8.80;99.90;;;;;;5111828;28;20791;-67
2022/04/30 02:09:43;;;;;;;1999.90;999.90;;;8.90;99.90;;;;;;5110668;28;20529;-68
2022/04/30 02:12:10;;;;;;;1999.90;999.90;;;8.90;99.90;;;;;;5111769;28;20528;-69
2022/04/30 02:14:44;;;;;;;1999.90;999.90;;;8.90;99.90;;;;;;5111493;28;20499;-69
2022/04/30 02:17:13;;;;;;;1999.90;999.90;;;8.90;99.90;;;;;;5112556;28;21003;-69
2022/04/30 02:22:26;;;;;;;1999.90;999.90;;;8.80;99.90;;;;;;5112473;28;20826;-70
2022/04/30 02:24:54;;;;;;;1999.90;999.90;;;8.70;99.90;;;;;;5111020;28;20512;-70
2022/04/30 02:27:22;;;;;;;1999.90;999.90;;;8.60;99.90;;;;;;5111829;28;20455;-70
2022/04/30 02:29:50;;;;;;;1999.90;999.90;;;8.60;99.90;;;;;;5110709;28;20580;-71
2022/04/30 02:32:17;;;;;;;1999.90;999.90;;;8.60;99.90;;;;;;5111199;28;20513;-71
2022/04/30 02:34:44;;;;;;;1999.90;999.90;;;8.50;99.90;;;;;;5110769;28;21000;-70
2022/04/30 02:37:13;;;;;;;1999.90;999.90;;;8.50;99.90;;;;;;5115666;28;20483;-68
2022/04/30 02:39:40;;;;;;;1999.90;999.90;;;8.50;99.90;;;;;;5114912;28;20520;-69
2022/04/30 02:42:07;;;;;;;1999.90;999.90;;;8.40;99.90;;;;;;5114594;28;20467;-70
2022/04/30 02:44:33;;;;;;;1999.90;999.90;;;8.40;99.90;;;;;;5115361;28;20451;-71
2022/04/30 02:47:01;;;;;;;1999.90;999.90;;;8.40;99.90;;;;;;5115052;28;20447;-69
2022/04/30 02:49:28;;;;;;;1999.90;999.90;;;8.40;99.90;;;;;;5115043;28;20473;-70
2022/04/30 02:51:55;;;;;;;1999.90;999.90;;;8.40;99.90;;;;;;5115396;28;20463;-70
2022/04/30 02:54:21;;;;;;;1999.90;999.90;;;8.40;99.90;;;;;;5114296;28;20476;-72
2022/04/30 02:56:48;;;;;;;1999.90;999.90;;;8.40;99.90;;;;;;5114962;28;20967;-70
2022/04/30 03:01:59;;;;;;;1999.90;999.90;;;8.40;99.90;;;;;;5094438;28;20439;-69
2022/04/30 03:04:27;;;;;;;1999.90;999.90;;;8.40;99.90;;;;;;5112722;28;20463;-71
2022/04/30 03:06:53;;;;;;;1999.90;999.90;;;8.40;99.90;;;;;;5115092;28;20488;-70
2022/04/30 03:09:20;;;;;;;1999.90;999.90;;;8.50;99.90;;;;;;5114352;28;20459;-66
2022/04/30 03:11:47;;;;;;;1999.90;999.90;;;8.50;99.90;;;;;;5114071;28;20483;-68
2022/04/30 03:14:15;;;;;;;1999.90;999.90;;;8.50;99.90;;;;;;5115609;28;20526;-67
2022/04/30 03:22:13;;;;;;;1999.90;999.90;;;8.40;99.90;;;;;;5114558;28;20479;-68
2022/04/30 03:24:39;;;;;;;1999.90;999.90;;;8.40;99.90;;;;;;5114755;28;20485;-68
2022/04/30 03:27:06;;;;;;;1999.90;999.90;;;8.50;99.90;;;;;;5114185;28;21049;-68
2022/04/30 03:29:33;;;;;;;1999.90;999.90;;;8.50;99.90;;;;;;5114984;28;20469;-68
2022/04/30 03:31:59;;;;;;;1999.90;999.90;;;8.50;99.90;;;;;;5113803;28;20487;-67
2022/04/30 03:34:32;;;;;;;1999.90;999.90;;;8.60;99.90;;;;;;5114512;28;20937;-68
2022/04/30 03:36:59;;;;;;;1999.90;999.90;;;8.60;99.90;;;;;;5114193;28;20542;-67
2022/04/30 03:39:26;;;;;;;1999.90;999.90;;;8.60;99.90;;;;;;5115038;28;20448;-67
2022/04/30 03:41:52;;;;;;;1999.90;999.90;;;8.60;99.90;;;;;;5113337;28;20479;-69
2022/04/30 03:44:19;;;;;;;1999.90;999.90;;;8.60;99.90;;;;;;5114424;28;20477;-68
2022/04/30 03:46:46;;;;;;;1999.90;999.90;;;8.70;99.90;;;;;;5112939;28;20903;-68
2022/04/30 03:49:13;;;;;;;1999.90;999.90;;;8.70;99.90;;;;;;5114588;28;20531;-69
2022/04/30 03:51:41;;;;;;;1999.90;999.90;;;8.70;99.90;;;;;;5114178;28;20471;-68
2022/04/30 03:54:08;;;;;;;1999.90;999.90;;;8.60;99.90;;;;;;5116327;28;20439;-69
2022/04/30 03:56:34;;;;;;;1999.90;999.90;;;8.50;99.90;;;;;;5114323;28;20467;-68
2022/04/30 03:59:01;;;;;;;1999.90;999.90;;;8.50;99.90;;;;;;5114499;28;20528;-69
2022/04/30 04:01:28;;;;;;;1999.90;999.90;;;8.50;99.90;;;;;;5112878;28;20470;-68
2022/04/30 04:03:55;;;;;;;1999.90;999.90;;;8.50;99.90;;;;;;5114409;28;20447;-68
2022/04/30 04:06:22;;;;;;;1999.90;999.90;;;8.40;99.90;;;;;;5114056;28;20463;-69
2022/04/30 04:08:52;;;;;;;1999.90;999.90;;;8.50;99.90;;;;;;5113375;28;20949;-68
2022/04/30 04:11:20;;;;;;;1999.90;999.90;;;8.50;99.90;;;;;;5113781;28;20534;-68
2022/04/30 04:19:15;;;;;;;1999.90;999.90;;;8.50;99.90;;;;;;5113113;28;20466;-68
2022/04/30 04:21:42;;;;;;;1999.90;999.90;;;8.50;99.90;;;;;;5113318;28;20456;-67
2022/04/30 04:26:54;;;;;;;1999.90;999.90;;;8.50;99.90;;;;;;5106800;28;20505;-68
2022/04/30 04:29:21;;;;;;;1999.90;999.90;;;8.50;99.90;;;;;;5113351;28;20500;-69
2022/04/30 04:31:48;;;;;;;1999.90;999.90;;;8.50;99.90;;;;;;5114760;28;20467;-68
2022/04/30 04:34:14;;;;;;;1999.90;999.90;;;8.50;99.90;;;;;;5113438;28;20461;-69
2022/04/30 04:36:42;;;;;;;1999.90;999.90;;;8.40;99.90;;;;;;5114356;28;20516;-69
2022/04/30 04:39:12;;;;;;;1999.90;999.90;;;8.50;99.90;;;;;;5113218;28;20486;-68
2022/04/30 04:41:40;;;;;;;1999.90;999.90;;;8.50;99.90;;;;;;5112950;28;20443;-68
2022/04/30 04:44:06;;;;;;;1999.90;999.90;;;8.60;99.90;;;;;;5113141;28;20546;-68
2022/04/30 04:46:33;;;;;;;1999.90;999.90;;;8.60;99.90;;;;;;5113631;28;20856;-68
2022/04/30 04:49:00;;;;;;;1999.90;999.90;;;8.60;99.90;;;;;;5112559;28;20463;-68
2022/04/30 04:51:28;;;;;;;1999.90;999.90;;;8.60;99.90;;;;;;5112130;28;20464;-68
2022/04/30 04:53:55;;;;;;;1999.90;999.90;;;8.60;99.90;;;;;;5112555;28;20470;-68
2022/04/30 04:56:24;;;;;;;1999.90;999.90;;;8.60;99.90;;;;;;5114003;28;20496;-67
2022/04/30 04:58:50;;;;;;;1999.90;999.90;;;8.60;99.90;;;;;;5112139;28;20479;-68
2022/04/30 05:01:17;;;;;;;1999.90;999.90;;;8.60;99.90;;;;;;5112427;28;21018;-68
2022/04/30 05:03:44;;;;;;;1999.90;999.90;;;8.70;99.90;;;;;;5112004;28;20533;-68
2022/04/30 05:06:10;;;;;;;1999.90;999.90;;;8.70;99.90;;;;;;5113177;28;20444;-68
2022/04/30 05:08:37;;;;;;;1999.90;999.90;;;8.70;99.90;;;;;;5112310;28;20460;-68
2022/04/30 05:11:04;;;;;;;1999.90;999.90;;;8.70;99.90;;;;;;5112725;28;20504;-69
2022/04/30 05:13:31;;;;;;;1999.90;999.90;;;8.80;99.90;;;;;;5111403;28;20491;-68
2022/04/30 05:15:58;;;;;;;1999.90;999.90;;;8.90;99.90;;;;;;5112576;28;20435;-68
2022/04/30 05:18:25;;;;;;;1999.90;999.90;;;8.80;99.90;;;;;;5111961;28;20532;-68
2022/04/30 05:20:51;;;;;;;1999.90;999.90;;;8.90;99.90;;;;;;5112537;28;20455;-68
2022/04/30 05:23:18;;;;;;;1999.90;999.90;;;8.90;99.90;;;;;;5111347;28;20483;-67
2022/04/30 05:25:45;;;;;;;1999.90;999.90;;;9.00;99.90;;;;;;5112590;28;20493;-68
2022/04/30 05:28:11;;;;;;;1999.90;999.90;;;8.90;99.90;;;;;;5111820;28;20451;-68
2022/04/30 05:30:39;;;;;;;1999.90;999.90;;;8.90;99.90;;;;;;5112276;28;20443;-68
2022/04/30 05:33:06;;;;;;;1999.90;999.90;;;8.90;99.90;;;;;;5111795;28;20552;-68
2022/04/30 05:35:33;;;;;;;1999.90;999.90;;;9.00;99.90;;;;;;5112593;28;20450;-68
2022/04/30 05:37:59;;;;;;;1999.90;999.90;;;9.00;99.90;;;;;;5111444;28;20498;-68
2022/04/30 05:40:26;;;;;;;1999.90;999.90;;;9.10;99.90;;;;;;5111883;28;20927;-69
2022/04/30 05:42:53;;;;;;;1999.90;999.90;;;9.10;99.90;;;;;;5111219;28;20483;-68
2022/04/30 05:45:19;;;;;;;1999.90;999.90;;;9.20;99.90;;;;;;5112684;28;20489;-68
2022/04/30 05:47:47;;;;;;;1999.90;999.90;;;9.20;99.90;;;;;;5112167;28;21081;-68
2022/04/30 05:50:14;;;;;;;1999.90;999.90;;;9.10;99.90;;;;;;5112390;28;20451;-68
2022/04/30 05:52:40;;;;;;;1999.90;999.90;;;9.10;99.90;;;;;;5111895;28;20516;-68
2022/04/30 05:55:08;;;;;;;1999.90;999.90;;;9.10;99.90;;;;;;5112412;28;20485;-68
2022/04/30 05:57:35;;;;;;;1999.90;999.90;;;9.10;99.90;;;;;;5112940;28;20444;-68
2022/04/30 06:00:01;;;;;;;1999.90;999.90;;;9.10;99.90;;;;;;5111345;28;20980;-68
2022/04/30 06:02:28;;;;;;;1999.90;999.90;;;9.20;99.90;;;;;;5109565;28;20505;-68
2022/04/30 06:04:56;;;;;;;1999.90;999.90;;;9.30;99.90;;;;;;5110891;28;20445;-68
2022/04/30 06:07:23;;;;;;;1999.90;999.90;;;9.20;99.90;;;;;;5110698;28;20467;-69
2022/04/30 06:09:49;;;;;;;1999.90;999.90;;;9.30;99.90;;;;;;5106467;28;20493;-68
2022/04/30 06:12:16;;;;;;;1999.90;999.90;;;9.30;99.90;;;;;;5116113;28;20475;-68
2022/04/30 06:14:43;;;;;;;1999.90;999.90;;;9.30;99.90;;;;;;5115006;22;20489;-67
2022/04/30 06:17:10;;;;;;;1999.90;999.90;;;9.20;99.90;;;;;;5090128;28;20500;-67
2022/04/30 06:19:37;;;;;;;1999.90;999.90;;;9.20;99.90;;;;;;5095128;28;20480;-67
2022/04/30 06:22:05;;;;;;;1999.90;999.90;;;9.20;99.90;;;;;;5095076;28;20452;-67
2022/04/30 06:24:32;;;;;;;1999.90;999.90;;;9.10;99.90;;;;;;5093432;28;20500;-66
2022/04/30 06:26:59;;;;;;;1999.90;999.90;;;9.10;99.90;;;;;;5087373;28;20444;-66
2022/04/30 06:29:25;;;;;;;1999.90;999.90;;;9.20;99.90;;;;;;5096459;28;20535;-69
2022/04/30 06:31:52;;;;;;;1999.90;999.90;;;9.30;99.90;;;;;;5095692;28;20506;-66
2022/04/30 06:34:19;;;;;;;1999.90;999.90;;;9.30;99.90;;;;;;5094701;28;20468;-66
2022/04/30 06:36:46;;;;;;;1999.90;999.90;;;9.40;99.90;;;;;;5095399;28;20866;-66
2022/04/30 06:39:14;;;;;;;1999.90;999.90;;;9.50;99.90;;;;;;5094940;28;20476;-65
2022/04/30 06:41:41;;;;;;;1999.90;999.90;;;9.60;99.90;;;;;;5095355;28;20474;-67
2022/04/30 06:44:08;;;;;;;1999.90;999.90;;;9.70;99.90;;;;;;5095252;28;20468;-67
2022/04/30 06:46:34;;;;;;;1999.90;999.90;;;9.90;99.90;;;;;;5084646;28;20461;-67
2022/04/30 06:49:01;;;;;;;1999.90;999.90;;;10.10;99.90;;;;;;5095438;28;20501;-66
2022/04/30 06:51:28;;;;;;;1999.90;999.90;;;10.20;99.90;;;;;;5095385;28;20448;-67
2022/04/30 06:59:25;;;;;;;1999.90;999.90;;;10.70;99.90;;;;;;5094517;28;20624;-67
2022/04/30 07:01:58;;;;;;;1999.90;999.90;;;10.80;99.90;;;;;;5094804;28;20448;-66
2022/04/30 07:04:25;;;;;;;1999.90;999.90;;;10.90;99.90;;;;;;5095140;28;20562;-67
2022/04/30 07:06:52;;;;;;;1999.90;999.90;;;11.00;99.90;;;;;;5094989;28;20518;-67
2022/04/30 07:09:19;;;;;;;1999.90;999.90;;;10.90;99.90;;;;;;5094512;28;20511;-67
2022/04/30 07:11:47;;;;;;;1999.90;999.90;;;11.10;99.90;;;;;;5094182;28;20449;-67
2022/04/30 07:14:14;;;;;;;1999.90;999.90;;;11.10;99.90;;;;;;5094686;28;20530;-67
2022/04/30 07:16:42;;;;;;;1999.90;999.90;;;11.20;99.90;;;;;;5094990;28;20470;-67
2022/04/30 07:19:09;;;;;;;1999.90;999.90;;;11.30;99.90;;;;;;5094579;28;20472;-67
2022/04/30 07:21:36;;;;;;;1999.90;999.90;;;11.40;99.90;;;;;;5093914;28;20444;-67
2022/04/30 07:24:03;;;;;;;1999.90;999.90;;;11.40;99.90;;;;;;5093858;28;21227;-67
2022/04/30 07:26:30;;;;;;;1999.90;999.90;;;11.30;99.90;;;;;;5094684;28;20456;-64
2022/04/30 07:28:58;;;;;;;1999.90;999.90;;;11.20;99.90;;;;;;5093832;28;20453;-67
2022/04/30 07:31:25;;;;;;;1999.90;999.90;;;11.20;99.90;;;;;;5091563;28;20460;-67
2022/04/30 07:33:51;;;;;;;1999.90;999.90;;;11.10;99.90;;;;;;5086992;28;20517;-67
2022/04/30 07:36:18;;;;;;;1999.90;999.90;;;11.20;99.90;;;;;;5090245;28;20446;-67
2022/04/30 07:38:45;;;;;;;1999.90;999.90;;;11.20;99.90;;;;;;5074076;28;20509;-67
2022/04/30 07:41:12;;;;;;;1999.90;999.90;;;11.30;99.90;;;;;;5075152;28;20441;-67
2022/04/30 07:43:39;;;;;;;1999.90;999.90;;;11.40;99.90;;;;;;5086807;28;20525;-67
2022/04/30 07:46:07;;;;;;;1999.90;999.90;;;11.40;99.90;;;;;;5094203;28;20452;-67
2022/04/30 07:48:34;;;;;;;1999.90;999.90;;;11.50;99.90;;;;;;5093113;28;20445;-65
2022/04/30 07:51:00;;;;;;;1999.90;999.90;;;11.40;99.90;;;;;;5092801;28;20460;-67
2022/04/30 07:53:27;;;;;;;1999.90;999.90;;;11.40;99.90;;;;;;5091858;28;20477;-67
2022/04/30 07:55:54;;;;;;;1999.90;999.90;;;11.50;99.90;;;;;;5094060;28;20452;-67
2022/04/30 07:58:21;;;;;;;1999.90;999.90;;;11.40;99.90;;;;;;5092921;28;21133;-67
2022/04/30 08:00:48;;;;;;;1999.90;999.90;;;11.20;99.90;;;;;;5094194;28;20655;-67
2022/04/30 08:03:16;;;;;;;1999.90;999.90;;;11.10;99.90;;;;;;5092287;28;20460;-67
2022/04/30 08:05:42;;;;;;;1999.90;999.90;;;11.00;99.90;;;;;;5091567;28;20882;-67
2022/04/30 08:08:09;;;;;;;1999.90;999.90;;;11.00;99.90;;;;;;5092759;28;20949;-67
2022/04/30 08:10:36;;;;;;;1999.90;999.90;;;11.00;99.90;;;;;;5092761;28;20457;-67
2022/04/30 08:13:02;;;;;;;1999.90;999.90;;;11.20;99.90;;;;;;5093240;28;20441;-67
2022/04/30 08:15:29;;;;;;;1999.90;999.90;;;11.20;99.90;;;;;;5093347;28;20876;-67
2022/04/30 08:17:56;;;;;;;1999.90;999.90;;;11.10;99.90;;;;;;5093590;28;20445;-67
2022/04/30 08:20:24;;;;;;;1999.90;999.90;;;11.10;99.90;;;;;;5100871;28;20472;-67
2022/04/30 08:22:51;;;;;;;1999.90;999.90;;;11.30;99.90;;;;;;5092718;28;21022;-67
2022/04/30 08:25:18;;;;;;;1999.90;999.90;;;11.40;99.90;;;;;;5092684;28;20480;-67
2022/04/30 08:27:45;;;;;;;1999.90;999.90;;;11.50;99.90;;;;;;5093950;28;20440;-67
2022/04/30 08:30:12;;;;;;;1999.90;999.90;;;11.60;99.90;;;;;;5091600;28;20521;-66
2022/04/30 08:32:39;;;;;;;1999.90;999.90;;;11.70;99.90;;;;;;5092107;28;20445;-67
2022/04/30 08:35:06;;;;;;;1999.90;999.90;;;11.80;99.90;;;;;;5091728;28;20484;-65
2022/04/30 08:37:34;;;;;;;1999.90;999.90;;;11.70;99.90;;;;;;5091056;28;20456;-67
2022/04/30 08:40:01;;;;;;;1999.90;999.90;;;11.60;99.90;;;;;;5091972;28;20477;-67
2022/04/30 08:42:29;;;;;;;1999.90;999.90;;;11.80;99.90;;;;;;5092971;28;20455;-67
2022/04/30 08:44:56;;;;;;;1999.90;999.90;;;12.00;99.90;;;;;;5090501;28;20579;-66
2022/04/30 08:47:22;;;;;;;1999.90;999.90;;;12.10;99.90;;;;;;5089223;28;20439;-67
2022/04/30 08:49:50;;;;;;;1999.90;999.90;;;12.00;99.90;;;;;;5090716;28;20506;-66
2022/04/30 08:52:16;;;;;;;1999.90;999.90;;;12.00;99.90;;;;;;5091354;28;20452;-67
2022/04/30 08:54:44;;;;;;;1999.90;999.90;;;12.20;99.90;;;;;;5092800;28;20510;-67
2022/04/30 08:57:11;;;;;;;1999.90;999.90;;;12.10;99.90;;;;;;5090245;28;20452;-66
2022/04/30 08:59:38;;;;;;;1999.90;999.90;;;12.10;99.90;;;;;;5091322;28;20490;-67
2022/04/30 09:02:10;;;;;;;1999.90;999.90;;;12.10;99.90;;;;;;5091843;28;20464;-67
2022/04/30 09:04:50;;;;;;;1999.90;999.90;;;12.10;99.90;;;;;;5117367;27;20602;-66
2022/04/30 09:07:17;;;;;;;1999.90;999.90;;;12.10;99.90;;;;;;5107105;28;20461;-66
2022/04/30 09:09:44;;;;;;;1999.90;999.90;;;12.20;99.90;;;;;;5083796;28;20449;-66
2022/04/30 09:12:13;;;;;;;1999.90;999.90;;;12.30;99.90;;;;;;5079020;28;20455;-66
2022/04/30 09:14:41;;;;;;;1999.90;999.90;;;12.40;99.90;;;;;;5090255;28;20487;-66
2022/04/30 09:17:09;;;;;;;1999.90;999.90;;;12.50;99.90;;;;;;5089625;28;20464;-64
2022/04/30 09:19:48;;;;;;;1999.90;999.90;;;12.70;99.90;;;;;;5069049;28;20537;-66
2022/04/30 09:22:15;;;;;;;1999.90;999.90;;;12.80;99.90;;;;;;5068731;28;20491;-65
2022/04/30 09:24:46;;;;;;;1999.90;999.90;;;13.00;99.90;;;;;;5069460;28;20485;-67
2022/04/30 09:27:14;;;;;;;1999.90;999.90;;;12.80;99.90;;;;;;5069691;28;20933;-67
2022/04/30 09:29:41;;;;;;;1999.90;999.90;;;13.00;99.90;;;;;;5089758;28;20448;-65
2022/04/30 09:32:08;;;;;;;1999.90;999.90;;;13.10;99.90;;;;;;5089405;28;20452;-65
2022/04/30 09:37:45;;;;;;;1999.90;999.90;;;13.20;99.90;;;;;;5056252;28;20432;-66
2022/04/30 09:40:20;;;;;;;1999.90;999.90;;;13.20;99.90;;;;;;5069104;28;20453;-66
2022/04/30 09:42:48;;;;;;;1999.90;999.90;;;13.20;99.90;;;;;;5068404;28;20516;-66
2022/04/30 09:45:24;;;;;;;1999.90;999.90;;;13.50;99.90;;;;;;5068945;28;20568;-66
2022/04/30 09:47:51;;;;;;;1999.90;999.90;;;13.50;99.90;;;;;;5068986;28;20429;-65
2022/04/30 09:55:52;;;;;;;1999.90;999.90;;;13.80;99.90;;;;;;5068144;28;20437;-66
2022/04/30 09:58:23;;;;;;;1999.90;999.90;;;14.10;99.90;;;;;;5069129;28;20432;-67
2022/04/30 10:00:53;;;;;;;1999.90;999.90;;;14.50;99.90;;;;;;5069091;28;20528;-67
2022/04/30 10:03:24;;;;;;;1999.90;999.90;;;14.50;99.90;;;;;;5073799;28;20555;-67
2022/04/30 10:05:55;;;;;;;1999.90;999.90;;;14.40;99.90;;;;;;5071698;28;20507;-67
2022/04/30 10:08:24;;;;;;;1999.90;999.90;;;14.30;99.90;;;;;;5068659;28;21010;-67
2022/04/30 10:10:56;;;;;;;1999.90;999.90;;;14.80;99.90;;;;;;5068500;28;20454;-67
2022/04/30 10:13:29;;;;;;;1999.90;999.90;;;15.00;99.90;;;;;;5073223;28;21004;-67
2022/04/30 10:15:57;;;;;;;1999.90;999.90;;;15.10;99.90;;;;;;5065380;28;20460;-67
2022/04/30 10:18:34;;;;;;;1999.90;999.90;;;15.20;99.90;;;;;;5086682;28;20436;-66
2022/04/30 10:21:02;;;;;;;1999.90;999.90;;;15.10;99.90;;;;;;5084051;28;20465;-66
2022/04/30 10:23:30;;;;;;;1999.90;999.90;;;15.10;99.90;;;;;;5087112;28;20488;-67
2022/04/30 10:26:07;;;;;;;1999.90;999.90;;;15.00;99.90;;;;;;5076305;28;20539;-67
2022/04/30 10:28:34;;;;;;;1999.90;999.90;;;15.10;99.90;;;;;;5094928;28;20463;-67
2022/04/30 10:31:01;;;;;;;1999.90;999.90;;;14.90;99.90;;;;;;5085363;28;20482;-67
2022/04/30 10:33:28;;;;;;;1999.90;999.90;;;14.50;99.90;;;;;;5094284;28;20461;-67
2022/04/30 10:36:04;;;;;;;1999.90;999.90;;;14.30;99.90;;;;;;5086617;28;20487;-64
2022/04/30 10:38:33;;;;;;;1999.90;999.90;;;14.80;99.90;;;;;;5068671;28;20548;-68
2022/04/30 10:41:02;;;;;;;1999.90;999.90;;;14.90;99.90;;;;;;5094850;28;20502;-68
2022/04/30 10:43:34;;;;;;;1999.90;999.90;;;15.00;99.90;;;;;;5072404;28;20535;-68
2022/04/30 10:46:02;;;;;;;1999.90;999.90;;;15.00;99.90;;;;;;5094155;28;20448;-68
2022/04/30 10:48:29;;;;;;;1999.90;999.90;;;14.80;99.90;;;;;;5084290;28;20875;-67
2022/04/30 10:51:05;;;;;;;1999.90;999.90;;;15.00;99.90;;;;;;5080672;28;20509;-66
2022/04/30 10:53:34;;;;;;;1999.90;999.90;;;14.80;99.90;;;;;;5081350;28;20473;-66
2022/04/30 10:56:02;;;;;;;1999.90;999.90;;;14.60;99.90;;;;;;5083536;28;21182;-66
2022/04/30 10:58:30;;;;;;;1999.90;999.90;;;14.60;99.90;;;;;;5063865;28;20520;-66
2022/04/30 11:00:58;;;;;;;1999.90;999.90;;;14.50;99.90;;;;;;5084585;28;20461;-65
2022/04/30 11:03:28;;;;;;;1999.90;999.90;;;14.40;99.90;;;;;;5068045;28;20494;-65
2022/04/30 11:05:55;;;;;;;1999.90;999.90;;;14.40;99.90;;;;;;5093885;28;20445;-66
2022/04/30 11:08:22;;;;;;;1999.90;999.90;;;14.80;99.90;;;;;;5083774;28;20498;-66
2022/04/30 11:10:51;;;;;;;1999.90;999.90;;;15.10;99.90;;;;;;5093319;28;20445;-65
2022/04/30 11:13:18;;;;;;;1999.90;999.90;;;15.20;99.90;;;;;;5082814;28;20827;-65
2022/04/30 11:15:44;;;;;;;1999.90;999.90;;;14.90;99.90;;;;;;5088635;28;20460;-67
2022/04/30 11:18:11;;;;;;;1999.90;999.90;;;14.80;99.90;;;;;;5089444;28;20471;-67
2022/04/30 11:20:38;;;;;;;1999.90;999.90;;;15.10;99.90;;;;;;5091804;28;20884;-67
2022/04/30 11:23:05;;;;;;;1999.90;999.90;;;15.60;99.90;;;;;;5090720;28;20440;-67
2022/04/30 11:25:36;;;;;;;1999.90;999.90;;;15.50;99.90;;;;;;5081214;28;20491;-68
2022/04/30 11:28:06;;;;;;;1999.90;999.90;;;15.20;99.90;;;;;;5092450;28;20932;-67
2022/04/30 11:30:36;;;;;;;1999.90;999.90;;;14.70;99.90;;;;;;5089456;28;20560;-67
2022/04/30 11:33:02;;;;;;;1999.90;999.90;;;14.70;99.90;;;;;;5093495;28;20593;-66
2022/04/30 11:35:29;;;;;;;1999.90;999.90;;;14.90;99.90;;;;;;5089476;28;20525;-66
2022/04/30 11:37:56;;;;;;;1999.90;999.90;;;14.80;99.90;;;;;;5083243;28;20457;-66
2022/04/30 11:40:23;;;;;;;1999.90;999.90;;;14.60;99.90;;;;;;5082956;28;20558;-66
2022/04/30 11:42:56;;;;;;;1999.90;999.90;;;14.70;99.90;;;;;;5093680;28;20501;-67
2022/04/30 11:45:28;;;;;;;1999.90;999.90;;;14.70;99.90;;;;;;5083066;28;20530;-67
2022/04/30 11:47:56;;;;;;;1999.90;999.90;;;14.80;99.90;;;;;;5072136;28;20956;-64
2022/04/30 11:50:23;;;;;;;1999.90;999.90;;;14.50;99.90;;;;;;5093409;28;20463;-67
2022/04/30 11:52:50;;;;;;;1999.90;999.90;;;14.40;99.90;;;;;;5085070;28;20460;-67
2022/04/30 11:55:17;;;;;;;1999.90;999.90;;;14.50;99.90;;;;;;5092539;28;20482;-67
2022/04/30 11:57:45;;;;;;;1999.90;999.90;;;14.80;99.90;;;;;;5077136;28;20551;-67
2022/04/30 12:00:13;;;;;;;1999.90;999.90;;;15.30;99.90;;;;;;5081713;28;20456;-67
2022/04/30 12:02:42;;;;;;;1999.90;999.90;;;15.80;99.90;;;;;;5074801;28;20474;-67
2022/04/30 12:05:10;;;;;;;1999.90;999.90;;;16.00;99.90;;;;;;5071368;28;20489;-67
2022/04/30 12:07:38;;;;;;;1999.90;999.90;;;15.90;99.90;;;;;;5077560;28;20450;-67
2022/04/30 12:10:19;;;;;;;1999.90;999.90;;;15.20;99.90;;;;;;5086551;28;20518;-65
2022/04/30 12:12:46;;;;;;;1999.90;999.90;;;14.90;99.90;;;;;;5092936;28;20497;-67
2022/04/30 12:15:21;;;;;;;1999.90;999.90;;;14.80;99.90;;;;;;5135776;22;20495;-68
2022/04/30 12:26:07;;;;;;;1999.90;999.90;;;15.50;99.90;;;;;;5092270;28;20432;-67
2022/04/30 12:28:45;;;;;;;1999.90;999.90;;;15.50;99.90;;;;;;5092607;28;20484;-68
2022/04/30 12:31:12;;;;;;;1999.90;999.90;;;15.50;99.90;;;;;;5097384;28;20456;-68
2022/04/30 12:33:46;;;;;;;1999.90;999.90;;;15.70;99.90;;;;;;5084289;28;20498;-68
2022/04/30 12:36:13;;;;;;;1999.90;999.90;;;15.60;99.90;;;;;;5098385;28;20447;-69
2022/04/30 12:38:40;;;;;;;1999.90;999.90;;;15.20;99.90;;;;;;5113487;28;20842;-69
2022/04/30 12:41:07;;;;;;;1999.90;999.90;;;15.20;99.90;;;;;;5088094;28;20453;-68
2022/04/30 12:43:36;;;;;;;1999.90;999.90;;;15.30;99.90;;;;;;5090076;28;20452;-68
2022/04/30 12:46:03;;;;;;;1999.90;999.90;;;15.20;99.90;;;;;;5090504;28;20458;-68
2022/04/30 12:48:32;;;;;;;1999.90;999.90;;;15.10;99.90;;;;;;5113585;28;20446;-69
2022/04/30 12:51:00;;;;;;;1999.90;999.90;;;15.10;99.90;;;;;;5093380;28;20466;-68
2022/04/30 12:53:27;;;;;;;1999.90;999.90;;;15.10;99.90;;;;;;5089233;28;20437;-68